Off The Grid — WDJ6506 — position and weather

sailwx.info

Track history (hours):
 
Tides and Currents Weather Stations Pressure Air Temp Water Temp Dewpoint Dewpoint Depression Visibility Wind Speed Wind Dir Waves Ship Positions

Off The Grid

Owner: Procuring Cause, LLC, Fairfax Station, VA. More information available from US FCC via Universal Licensing System and Coast Guard Vessel Documentation Center.

Last reported at 2017-Dec-02 19:58 UTC. Time now 2018-Feb-24 06:09 UTC.
Position N 26°08' W 080°07'.
Warning: this ship's position is months out of date.

Length 65 m.

Type: Pleasure craft. MMSI: 367798440.

Date/timePositionNaut miles runAvg speedWind from/ knotsBaromVisibWave heightAir tempDewpointWater temp
2017-Dec-02 19:58N 26°08' W 080°07'2 3.9
2017-Dec-02 19:28N 26°06' W 080°07'612.1
2017-Dec-02 18:57N 26°11' W 080°04'2317.6
2017-Dec-02 17:37N 26°35' W 080°01'216.8
2017-Dec-02 17:29N 26°37' W 080°01'917.0
2017-Dec-02 16:58N 26°46' W 080°01'816.1
2017-Dec-02 16:30N 26°53' W 079°60'815.4
2017-Dec-02 16:00N 27°01' W 079°60'  
2017-Nov-29 13:21N 31°44' W 080°56'716.3
2017-Nov-29 12:54N 31°51' W 080°54'512.0
2017-Nov-29 12:30N 31°55' W 080°57'510.3
2017-Nov-29 12:00N 31°59' W 081°00'3 6.6
2017-Nov-29 11:30N 32°02' W 081°03'0 0.0
2017-Nov-29 10:57N 32°02' W 081°03'0 0.0
2017-Nov-29 10:27N 32°02' W 081°03'0 0.0
2017-Nov-29 09:57N 32°02' W 081°03'0 0.0
2017-Nov-29 09:27N 32°02' W 081°03'0 0.0
2017-Nov-29 08:51N 32°02' W 081°03'0 0.0
2017-Nov-29 08:27N 32°02' W 081°03'0 0.0
2017-Nov-29 07:57N 32°02' W 081°03'0 0.0
2017-Nov-29 07:27N 32°02' W 081°03'0 0.0
2017-Nov-29 06:57N 32°02' W 081°03'0 0.0
2017-Nov-29 06:27N 32°02' W 081°03'0 0.0
2017-Nov-29 05:57N 32°02' W 081°03'0 0.0
2017-Nov-29 05:09N 32°02' W 081°03'0 0.0
2017-Nov-29 04:57N 32°02' W 081°03'0 0.0
2017-Nov-29 04:27N 32°02' W 081°03'0 0.0
2017-Nov-29 03:51N 32°02' W 081°03'0 0.0
2017-Nov-29 03:27N 32°02' W 081°03'0 0.0
2017-Nov-29 02:50N 32°02' W 081°03'0 0.0
2017-Nov-29 02:26N 32°02' W 081°03'0 0.0
2017-Nov-29 01:56N 32°02' W 081°03'0 0.0
2017-Nov-29 01:26N 32°02' W 081°03'0 0.0
2017-Nov-29 00:56N 32°02' W 081°03'0 0.0
2017-Nov-29 00:26N 32°02' W 081°03'0 0.0
2017-Nov-28 23:56N 32°02' W 081°03'0 0.0
2017-Nov-28 23:26N 32°02' W 081°03'0 0.0
2017-Nov-28 22:56N 32°02' W 081°03'0 0.0
2017-Nov-28 22:26N 32°02' W 081°03'0 0.0
2017-Nov-28 21:56N 32°02' W 081°03'0 0.0
2017-Nov-28 21:26N 32°02' W 081°03'0 0.0
2017-Nov-28 20:56N 32°02' W 081°03'0 0.5
2017-Nov-28 20:30N 32°02' W 081°03'3 6.6
2017-Nov-28 20:00N 32°04' W 081°00'611.3
2017-Nov-28 19:30N 32°02' W 080°54'815.7
2017-Nov-28 19:00N 31°59' W 080°46'252 8.1
2017-Nov-27 11:39N 34°34' W 076°47'216.0
2017-Nov-27 11:30N 34°35' W 076°45'713.3
2017-Nov-27 11:00N 34°41' W 076°40'3 6.3
2017-Nov-27 10:30N 34°43' W 076°42'0 0.3
2017-Nov-27 09:59N 34°43' W 076°42'0 0.0
2017-Nov-27 09:29N 34°43' W 076°42'0 0.0
2017-Nov-27 08:59N 34°43' W 076°42'0 0.0
2017-Nov-27 08:29N 34°43' W 076°42'0 0.0
2017-Nov-27 07:59N 34°43' W 076°42'0 0.0
2017-Nov-27 07:29N 34°43' W 076°42'0 0.0
2017-Nov-27 06:59N 34°43' W 076°42'0 0.0
2017-Nov-27 06:29N 34°43' W 076°42'0 0.0
2017-Nov-27 05:59N 34°43' W 076°42'0 0.0
2017-Nov-27 05:29N 34°43' W 076°42'0 0.0
2017-Nov-27 04:59N 34°43' W 076°42'0 0.0
2017-Nov-27 04:29N 34°43' W 076°42'0 0.0
2017-Nov-27 03:59N 34°43' W 076°42'0 0.0
2017-Nov-27 03:30N 34°43' W 076°42'0 0.0
2017-Nov-27 02:58N 34°43' W 076°42'0 0.0
2017-Nov-27 02:28N 34°43' W 076°42'0 0.0
2017-Nov-27 01:58N 34°43' W 076°42'0 0.0
2017-Nov-27 01:28N 34°43' W 076°42'0 0.0
2017-Nov-27 00:58N 34°43' W 076°42'0 0.0
2017-Nov-27 00:28N 34°43' W 076°42'0 0.0
2017-Nov-26 23:58N 34°43' W 076°42'0 0.0
2017-Nov-26 23:28N 34°43' W 076°42'0 0.0
2017-Nov-26 22:58N 34°43' W 076°42'0 0.0
2017-Nov-26 22:28N 34°43' W 076°42'0 0.7
2017-Nov-26 22:00N 34°43' W 076°42'612.5
2017-Nov-26 21:30N 34°38' W 076°39'13514.4
2017-Nov-26 12:06N 36°49' W 075°56'417.4
2017-Nov-26 11:53N 36°52' W 075°58'94 4.2
2017-Nov-25 13:26N 38°24' W 076°22'1813.7
2017-Nov-25 12:09N 38°42' W 076°26'214.3
2017-Nov-25 12:00N 38°44' W 076°26'814.5
2017-Nov-25 11:26N 38°52' W 076°26'510.7
2017-Nov-25 10:59N 38°57' W 076°26'2 0.2
2017-Nov-25 03:03N 38°58' W 076°28'  
Track history (hours):
 
Tides and Currents Weather Stations Pressure Air Temp Water Temp Dewpoint Dewpoint Depression Visibility Wind Speed Wind Dir Waves Ship Positions

Off The Grid

Owner: Procuring Cause, LLC, Fairfax Station, VA. More information available from US FCC via Universal Licensing System and Coast Guard Vessel Documentation Center.

Last reported at 2017-Dec-02 19:58 UTC. Time now 2018-Feb-24 06:09 UTC.
Position N 26°08' W 080°07'.
Warning: this ship's position is months out of date.

Length 65 m.

Type: Pleasure craft. MMSI: 367798440.

Date/timePositionNaut miles runAvg speedWind from/ knotsBaromVisibWave heightAir tempDewpointWater temp
2017-Dec-02 19:58N 26°08' W 080°07'2 3.9
2017-Dec-02 19:28N 26°06' W 080°07'612.1
2017-Dec-02 18:57N 26°11' W 080°04'2317.6
2017-Dec-02 17:37N 26°35' W 080°01'216.8
2017-Dec-02 17:29N 26°37' W 080°01'917.0
2017-Dec-02 16:58N 26°46' W 080°01'816.1
2017-Dec-02 16:30N 26°53' W 079°60'815.4
2017-Dec-02 16:00N 27°01' W 079°60'  
2017-Nov-29 13:21N 31°44' W 080°56'716.3
2017-Nov-29 12:54N 31°51' W 080°54'512.0
2017-Nov-29 12:30N 31°55' W 080°57'510.3
2017-Nov-29 12:00N 31°59' W 081°00'3 6.6
2017-Nov-29 11:30N 32°02' W 081°03'0 0.0
2017-Nov-29 10:57N 32°02' W 081°03'0 0.0
2017-Nov-29 10:27N 32°02' W 081°03'0 0.0
2017-Nov-29 09:57N 32°02' W 081°03'0 0.0
2017-Nov-29 09:27N 32°02' W 081°03'0 0.0
2017-Nov-29 08:51N 32°02' W 081°03'0 0.0
2017-Nov-29 08:27N 32°02' W 081°03'0 0.0
2017-Nov-29 07:57N 32°02' W 081°03'0 0.0
2017-Nov-29 07:27N 32°02' W 081°03'0 0.0
2017-Nov-29 06:57N 32°02' W 081°03'0 0.0
2017-Nov-29 06:27N 32°02' W 081°03'0 0.0
2017-Nov-29 05:57N 32°02' W 081°03'0 0.0
2017-Nov-29 05:09N 32°02' W 081°03'0 0.0
2017-Nov-29 04:57N 32°02' W 081°03'0 0.0
2017-Nov-29 04:27N 32°02' W 081°03'0 0.0
2017-Nov-29 03:51N 32°02' W 081°03'0 0.0
2017-Nov-29 03:27N 32°02' W 081°03'0 0.0
2017-Nov-29 02:50N 32°02' W 081°03'0 0.0
2017-Nov-29 02:26N 32°02' W 081°03'0 0.0
2017-Nov-29 01:56N 32°02' W 081°03'0 0.0
2017-Nov-29 01:26N 32°02' W 081°03'0 0.0
2017-Nov-29 00:56N 32°02' W 081°03'0 0.0
2017-Nov-29 00:26N 32°02' W 081°03'0 0.0
2017-Nov-28 23:56N 32°02' W 081°03'0 0.0
2017-Nov-28 23:26N 32°02' W 081°03'0 0.0
2017-Nov-28 22:56N 32°02' W 081°03'0 0.0
2017-Nov-28 22:26N 32°02' W 081°03'0 0.0
2017-Nov-28 21:56N 32°02' W 081°03'0 0.0
2017-Nov-28 21:26N 32°02' W 081°03'0 0.0
2017-Nov-28 20:56N 32°02' W 081°03'0 0.5
2017-Nov-28 20:30N 32°02' W 081°03'3 6.6
2017-Nov-28 20:00N 32°04' W 081°00'611.3
2017-Nov-28 19:30N 32°02' W 080°54'815.7
2017-Nov-28 19:00N 31°59' W 080°46'252 8.1
2017-Nov-27 11:39N 34°34' W 076°47'216.0
2017-Nov-27 11:30N 34°35' W 076°45'713.3
2017-Nov-27 11:00N 34°41' W 076°40'3 6.3
2017-Nov-27 10:30N 34°43' W 076°42'0 0.3
2017-Nov-27 09:59N 34°43' W 076°42'0 0.0
2017-Nov-27 09:29N 34°43' W 076°42'0 0.0
2017-Nov-27 08:59N 34°43' W 076°42'0 0.0
2017-Nov-27 08:29N 34°43' W 076°42'0 0.0
2017-Nov-27 07:59N 34°43' W 076°42'0 0.0
2017-Nov-27 07:29N 34°43' W 076°42'0 0.0
2017-Nov-27 06:59N 34°43' W 076°42'0 0.0
2017-Nov-27 06:29N 34°43' W 076°42'0 0.0
2017-Nov-27 05:59N 34°43' W 076°42'0 0.0
2017-Nov-27 05:29N 34°43' W 076°42'0 0.0
2017-Nov-27 04:59N 34°43' W 076°42'0 0.0
2017-Nov-27 04:29N 34°43' W 076°42'0 0.0
2017-Nov-27 03:59N 34°43' W 076°42'0 0.0
2017-Nov-27 03:30N 34°43' W 076°42'0 0.0
2017-Nov-27 02:58N 34°43' W 076°42'0 0.0
2017-Nov-27 02:28N 34°43' W 076°42'0 0.0
2017-Nov-27 01:58N 34°43' W 076°42'0 0.0
2017-Nov-27 01:28N 34°43' W 076°42'0 0.0
2017-Nov-27 00:58N 34°43' W 076°42'0 0.0
2017-Nov-27 00:28N 34°43' W 076°42'0 0.0
2017-Nov-26 23:58N 34°43' W 076°42'0 0.0
2017-Nov-26 23:28N 34°43' W 076°42'0 0.0
2017-Nov-26 22:58N 34°43' W 076°42'0 0.0
2017-Nov-26 22:28N 34°43' W 076°42'0 0.7
2017-Nov-26 22:00N 34°43' W 076°42'612.5
2017-Nov-26 21:30N 34°38' W 076°39'13514.4
2017-Nov-26 12:06N 36°49' W 075°56'417.4
2017-Nov-26 11:53N 36°52' W 075°58'94 4.2
2017-Nov-25 13:26N 38°24' W 076°22'1813.7
2017-Nov-25 12:09N 38°42' W 076°26'214.3
2017-Nov-25 12:00N 38°44' W 076°26'814.5
2017-Nov-25 11:26N 38°52' W 076°26'510.7
2017-Nov-25 10:59N 38°57' W 076°26'2 0.2
2017-Nov-25 03:03N 38°58' W 076°28'  

Dump ship's entire track history